Time;durP1;ratioP1;P1;durP2;ratioP2;P2;SDS_P1;SDS_P2;PMS_P1;PMS_P2;Temp;Humidity;BMP_temperature;BMP_pressure;BME280_temperature;BME280_humidity;BME280_pressure;Samples;Min_cycle;Max_cycle;Signal;HPM_P1;HPM_P2
2021/11/11 00:01:51;;;;;;;41.60;24.40;;;0.40;99.90;;;;;;5088155;28;20024;-79
2021/11/11 00:04:19;;;;;;;46.72;25.30;;;0.50;99.90;;;;;;5088321;28;20044;-81
2021/11/11 00:06:46;;;;;;;46.72;26.60;;;0.70;99.90;;;;;;5070515;28;20388;-80
2021/11/11 00:09:12;;;;;;;44.13;26.38;;;0.50;99.90;;;;;;5071576;28;20024;-79
2021/11/11 00:11:39;;;;;;;46.85;26.27;;;0.60;99.90;;;;;;5089242;28;20024;-80
2021/11/11 00:14:04;;;;;;;47.33;26.23;;;0.70;99.90;;;;;;5088823;28;20396;-81
2021/11/11 00:16:30;;;;;;;42.88;25.80;;;0.50;99.90;;;;;;5087519;28;20028;-79
2021/11/11 00:18:56;;;;;;;42.80;26.15;;;0.60;99.90;;;;;;5087797;28;20070;-79
2021/11/11 00:21:21;;;;;;;46.05;26.63;;;0.80;99.90;;;;;;5085708;28;20149;-80
2021/11/11 00:23:47;;;;;;;50.38;26.58;;;1.10;99.90;;;;;;5087693;28;20021;-81
2021/11/11 00:26:13;;;;;;;51.28;27.13;;;0.80;99.90;;;;;;5088162;28;20469;-80
2021/11/11 00:28:39;;;;;;;44.95;26.02;;;0.70;99.90;;;;;;5088329;28;20421;-80
2021/11/11 00:31:04;;;;;;;41.80;23.90;;;0.70;99.90;;;;;;5088202;28;20037;-78
2021/11/11 00:33:30;;;;;;;46.80;25.83;;;0.50;99.90;;;;;;5088594;28;20033;-80
2021/11/11 00:35:56;;;;;;;45.40;24.52;;;0.50;99.90;;;;;;5088376;28;20028;-78
2021/11/11 00:38:22;;;;;;;41.35;24.08;;;0.50;99.90;;;;;;5089037;28;20037;-79
2021/11/11 00:40:47;;;;;;;43.75;23.48;;;0.40;99.90;;;;;;5072168;28;20016;-80
2021/11/11 00:43:13;;;;;;;44.55;23.60;;;0.50;99.90;;;;;;5072151;28;20028;-80
2021/11/11 00:45:38;;;;;;;39.20;23.60;;;0.10;99.90;;;;;;5071433;28;20078;-80
2021/11/11 00:48:05;;;;;;;40.47;23.20;;;0.40;99.90;;;;;;5071559;28;20041;-78
2021/11/11 00:50:32;;;;;;;37.28;22.65;;;0.40;99.90;;;;;;5091403;28;20512;-81
2021/11/11 00:52:58;;;;;;;36.95;20.45;;;0.20;99.90;;;;;;5091869;28;20024;-81
2021/11/11 00:55:24;;;;;;;33.38;20.98;;;0.10;99.90;;;;;;5089757;28;20021;-81
2021/11/11 00:57:50;;;;;;;39.58;23.30;;;-0.10;99.90;;;;;;5089708;28;20028;-80
2021/11/11 01:00:18;;;;;;;46.90;26.02;;;-0.10;99.90;;;;;;5072912;28;20054;-80
2021/11/11 01:02:46;;;;;;;39.78;23.48;;;-0.10;99.90;;;;;;5089872;28;20033;-78
2021/11/11 01:05:12;;;;;;;39.10;24.05;;;-0.10;99.90;;;;;;5089634;28;20020;-80
2021/11/11 01:07:39;;;;;;;45.58;25.77;;;0.00;99.90;;;;;;5088588;28;20034;-79
2021/11/11 01:10:09;;;;;;;42.85;24.08;;;0.60;99.90;;;;;;5090240;28;20036;-80
2021/11/11 01:12:36;;;;;;;42.97;23.38;;;0.00;99.90;;;;;;5090199;28;20124;-81
2021/11/11 01:15:04;;;;;;;107.57;28.17;;;-0.20;99.90;;;;;;5089282;28;20021;-79
2021/11/11 01:17:30;;;;;;;48.47;25.60;;;0.00;99.90;;;;;;5089825;28;20100;-80
2021/11/11 01:19:56;;;;;;;86.22;27.70;;;-0.10;99.90;;;;;;5089682;28;20035;-81
2021/11/11 01:22:22;;;;;;;43.13;25.48;;;0.10;99.90;;;;;;5069174;28;20079;-79
2021/11/11 01:24:48;;;;;;;41.50;25.90;;;0.10;99.90;;;;;;5053730;28;20096;-80
2021/11/11 01:27:13;;;;;;;40.25;24.15;;;0.20;99.90;;;;;;5071095;28;20028;-79
2021/11/11 01:29:39;;;;;;;55.08;25.88;;;0.10;99.90;;;;;;5089780;28;20040;-81
2021/11/11 01:32:05;;;;;;;61.88;27.15;;;;;;;;;;5090663;28;20032;-81
2021/11/11 01:34:31;;;;;;;56.40;28.00;;;0.10;99.90;;;;;;5092377;28;20029;-80
2021/11/11 01:36:57;;;;;;;44.15;24.73;;;0.00;99.90;;;;;;5075553;28;20037;-81
2021/11/11 01:39:23;;;;;;;42.72;25.38;;;0.00;99.90;;;;;;5093047;28;20059;-78
2021/11/11 01:41:49;;;;;;;38.25;23.50;;;0.00;99.90;;;;;;5074928;28;20063;-80
2021/11/11 01:44:17;;;;;;;39.97;23.50;;;-0.10;99.90;;;;;;5074598;28;20397;-80
2021/11/11 01:46:43;;;;;;;38.97;24.02;;;-0.40;99.90;;;;;;5074842;28;20044;-80
2021/11/11 01:49:09;;;;;;;35.90;22.50;;;-0.50;99.90;;;;;;5092132;28;20042;-81
2021/11/11 01:51:35;;;;;;;42.67;23.02;;;-0.60;99.90;;;;;;5092975;28;20268;-80
2021/11/11 01:54:00;;;;;;;34.78;23.08;;;-0.60;99.90;;;;;;5075655;28;20374;-79
2021/11/11 01:56:26;;;;;;;39.47;23.17;;;-0.50;99.90;;;;;;5068350;28;20039;-80
2021/11/11 01:58:52;;;;;;;35.17;21.58;;;-0.60;99.90;;;;;;5091662;28;20044;-80
2021/11/11 02:01:18;;;;;;;35.25;21.77;;;-0.50;99.90;;;;;;5090802;28;20035;-79
2021/11/11 02:03:47;;;;;;;35.90;22.02;;;-0.60;99.90;;;;;;5091515;28;20043;-80
2021/11/11 02:06:13;;;;;;;34.50;21.80;;;-0.50;99.90;;;;;;5092017;28;20054;-79
2021/11/11 02:08:39;;;;;;;38.25;22.58;;;-0.70;99.90;;;;;;5091563;28;20433;-78
2021/11/11 02:11:06;;;;;;;38.28;20.90;;;-0.70;99.90;;;;;;5090189;28;20052;-79
2021/11/11 02:13:31;;;;;;;33.92;20.13;;;-0.70;99.90;;;;;;5091105;28;20027;-79
2021/11/11 02:15:57;;;;;;;37.08;22.55;;;-0.70;99.90;;;;;;5090477;28;20021;-78
2021/11/11 02:18:23;;;;;;;45.15;24.92;;;0.10;99.90;;;;;;5055266;28;20059;-79
2021/11/11 02:20:49;;;;;;;39.00;23.63;;;-0.50;99.90;;;;;;5090238;28;20139;-80
2021/11/11 02:23:17;;;;;;;37.95;22.83;;;-0.50;99.90;;;;;;5062511;28;20033;-80
2021/11/11 02:25:43;;;;;;;35.05;22.65;;;-0.50;99.90;;;;;;5070109;28;20021;-80
2021/11/11 02:28:13;;;;;;;33.28;21.40;;;-0.60;99.90;;;;;;5070524;28;20043;-79
2021/11/11 02:30:41;;;;;;;36.50;23.52;;;-0.70;99.90;;;;;;5088609;28;20029;-79
2021/11/11 02:33:16;;;;;;;37.63;22.38;;;-0.80;99.90;;;;;;5071305;28;20029;-79
2021/11/11 02:35:41;;;;;;;40.95;23.35;;;-0.90;99.90;;;;;;5070838;28;20116;-81
2021/11/11 02:38:09;;;;;;;37.88;22.80;;;-0.80;99.90;;;;;;5071989;28;20043;-79
2021/11/11 02:40:36;;;;;;;40.13;22.38;;;-0.80;99.90;;;;;;5089171;28;20051;-80
2021/11/11 02:43:02;;;;;;;46.78;23.40;;;-0.90;99.90;;;;;;5072397;28;20063;-80
2021/11/11 02:45:31;;;;;;;36.63;21.98;;;-0.90;99.90;;;;;;5090396;28;20028;-78
2021/11/11 02:47:58;;;;;;;37.47;23.42;;;-0.80;99.90;;;;;;5087326;28;20043;-79
2021/11/11 02:50:24;;;;;;;43.67;23.13;;;-0.90;99.90;;;;;;5068776;28;20047;-80
2021/11/11 02:52:52;;;;;;;39.25;23.65;;;-0.80;99.90;;;;;;5088164;28;20033;-82
2021/11/11 02:55:18;;;;;;;41.65;25.25;;;-0.60;99.90;;;;;;5073136;28;20039;-79
2021/11/11 02:57:45;;;;;;;43.33;25.45;;;-0.50;99.90;;;;;;5069887;28;20016;-79
2021/11/11 03:00:18;;;;;;;44.20;26.48;;;-0.30;99.90;;;;;;5088662;28;20024;-80
2021/11/11 03:02:46;;;;;;;42.95;24.50;;;-0.60;99.90;;;;;;5072121;28;20071;-79
2021/11/11 03:05:18;;;;;;;42.25;24.27;;;-0.40;99.90;;;;;;5090433;28;20029;-79
2021/11/11 03:07:44;;;;;;;41.10;24.80;;;-0.40;99.90;;;;;;5091939;28;20031;-79
2021/11/11 03:10:15;;;;;;;38.95;23.75;;;-0.60;99.90;;;;;;5088824;28;20287;-79
2021/11/11 03:12:41;;;;;;;50.00;26.02;;;-0.70;99.90;;;;;;5089085;28;20036;-80
2021/11/11 03:15:08;;;;;;;44.60;24.58;;;-0.70;99.90;;;;;;5088800;28;20046;-80
2021/11/11 03:17:34;;;;;;;43.47;23.90;;;-0.60;99.90;;;;;;5088937;28;20080;-80
2021/11/11 03:20:00;;;;;;;43.38;25.10;;;-0.70;99.90;;;;;;5089239;28;20035;-80
2021/11/11 03:22:26;;;;;;;41.47;24.73;;;-0.50;99.90;;;;;;5086713;28;20027;-80
2021/11/11 03:24:53;;;;;;;44.83;25.45;;;-0.60;99.90;;;;;;5072711;28;20036;-81
2021/11/11 03:27:19;;;;;;;47.60;27.00;;;-0.60;99.90;;;;;;5052005;28;20100;-79
2021/11/11 03:29:47;;;;;;;42.78;25.75;;;-0.40;99.90;;;;;;5050626;28;20158;-79
2021/11/11 03:32:13;;;;;;;50.88;26.90;;;-0.40;99.90;;;;;;5086931;28;20469;-80
2021/11/11 03:34:40;;;;;;;41.28;23.48;;;-0.20;99.90;;;;;;5079228;28;20031;-80
2021/11/11 03:37:06;;;;;;;40.03;22.65;;;-0.20;99.90;;;;;;5039950;28;20032;-80
2021/11/11 03:39:32;;;;;;;40.80;23.27;;;-0.30;99.90;;;;;;5056270;28;20479;-81
2021/11/11 03:41:58;;;;;;;44.70;24.02;;;-0.30;99.90;;;;;;5075274;28;20112;-81
2021/11/11 03:44:23;;;;;;;47.33;25.30;;;-0.30;99.90;;;;;;5056152;28;20028;-81
2021/11/11 03:46:53;;;;;;;44.55;24.60;;;-0.20;99.90;;;;;;5075040;28;20033;-81
2021/11/11 03:49:19;;;;;;;52.97;27.65;;;-0.10;99.90;;;;;;5074800;28;20032;-81
2021/11/11 03:51:45;;;;;;;50.75;25.65;;;-0.10;99.90;;;;;;5056507;28;20567;-80
2021/11/11 03:54:13;;;;;;;46.45;25.85;;;0.00;99.90;;;;;;5074130;28;20050;-80
2021/11/11 03:56:41;;;;;;;44.22;25.50;;;0.00;99.90;;;;;;5055815;28;20447;-81
2021/11/11 03:59:08;;;;;;;49.38;25.77;;;0.20;99.90;;;;;;5074026;28;20446;-79
2021/11/11 04:01:33;;;;;;;50.67;26.80;;;0.20;99.90;;;;;;5074215;28;20480;-81
2021/11/11 04:03:59;;;;;;;56.03;28.13;;;0.30;99.90;;;;;;5075077;28;20050;-79
2021/11/11 04:06:25;;;;;;;48.40;27.50;;;0.20;99.90;;;;;;5074390;28;20025;-79
2021/11/11 04:08:51;;;;;;;47.35;26.02;;;0.20;99.90;;;;;;5074599;28;20052;-79
2021/11/11 04:11:17;;;;;;;49.20;26.55;;;0.40;99.90;;;;;;5074139;28;20429;-81
2021/11/11 04:13:43;;;;;;;53.33;27.00;;;0.40;99.90;;;;;;5073945;28;20066;-81
2021/11/11 04:16:10;;;;;;;48.08;25.73;;;0.30;99.90;;;;;;5072397;28;20500;-81
2021/11/11 04:18:35;;;;;;;50.08;26.00;;;0.30;99.90;;;;;;5074357;28;20036;-81
2021/11/11 04:21:02;;;;;;;47.42;24.52;;;0.30;99.90;;;;;;5074892;28;20066;-81
2021/11/11 04:23:28;;;;;;;51.00;25.35;;;0.30;99.90;;;;;;5074879;28;20032;-80
2021/11/11 04:28:31;;;;;;;49.05;26.13;;;0.40;99.90;;;;;;5087374;22;20497;-78
2021/11/11 04:31:00;;;;;;;54.25;27.20;;;0.30;99.90;;;;;;4996310;28;20030;-78
2021/11/11 04:33:26;;;;;;;50.38;25.95;;;0.80;99.90;;;;;;5012692;28;20022;-79
2021/11/11 04:35:58;;;;;;;52.88;26.40;;;0.60;99.90;;;;;;5012397;28;20026;-78
2021/11/11 04:43:40;;;;;;;50.13;24.45;;;1.50;99.90;;;;;;5012582;28;20084;-78
2021/11/11 04:51:45;;;;;;;48.22;25.67;;;0.60;99.90;;;;;;5023640;28;20057;-79
2021/11/11 05:00:17;;;;;;;52.92;26.23;;;0.70;99.90;;;;;;5033072;28;20040;-79
2021/11/11 05:05:09;;;;;;;48.17;23.92;;;1.60;99.90;;;;;;5032503;28;20117;-79
2021/11/11 05:07:35;;;;;;;46.72;23.92;;;0.60;99.90;;;;;;5034742;28;20053;-80
2021/11/11 05:10:01;;;;;;;61.13;27.15;;;0.70;99.90;;;;;;5018303;28;20076;-79
2021/11/11 05:12:26;;;;;;;43.85;23.60;;;0.70;99.90;;;;;;5035694;28;20021;-79
2021/11/11 05:14:52;;;;;;;48.33;25.05;;;0.80;99.90;;;;;;5017756;28;20493;-79
2021/11/11 05:17:22;;;;;;;52.17;25.15;;;0.80;99.90;;;;;;5018233;28;20121;-79
2021/11/11 05:19:49;;;;;;;49.35;25.15;;;1.00;99.90;;;;;;5036251;28;20022;-79
2021/11/11 05:22:15;;;;;;;45.42;25.17;;;0.90;99.90;;;;;;5035316;28;20120;-79
2021/11/11 05:24:41;;;;;;;54.58;25.98;;;0.90;99.90;;;;;;5035678;28;20105;-79
2021/11/11 05:27:06;;;;;;;54.20;24.27;;;1.10;99.90;;;;;;5001556;28;20486;-79
2021/11/11 05:29:32;;;;;;;53.45;25.60;;;1.80;99.90;;;;;;5035484;28;20036;-79
2021/11/11 05:31:58;;;;;;;70.70;25.83;;;1.00;99.90;;;;;;5035709;28;20469;-79
2021/11/11 05:34:24;;;;;;;51.80;23.05;;;1.00;99.90;;;;;;5035445;28;20026;-78
2021/11/11 05:36:49;;;;;;;113.85;28.13;;;1.20;99.90;;;;;;5035689;28;20025;-80
2021/11/11 05:39:15;;;;;;;55.92;25.73;;;2.00;99.90;;;;;;5013667;28;20116;-78
2021/11/11 05:41:41;;;;;;;45.60;22.27;;;1.80;99.90;;;;;;4998561;28;20033;-77
2021/11/11 05:44:07;;;;;;;44.35;23.65;;;1.30;99.90;;;;;;5027956;28;20544;-77
2021/11/11 05:46:34;;;;;;;108.63;29.83;;;1.20;99.90;;;;;;5034588;28;20056;-77
2021/11/11 05:49:00;;;;;;;55.47;25.08;;;1.30;99.90;;;;;;5017357;28;20037;-78
2021/11/11 05:51:25;;;;;;;52.33;25.52;;;1.40;99.90;;;;;;5017380;28;20021;-78
2021/11/11 05:53:51;;;;;;;54.22;26.73;;;1.40;99.90;;;;;;5035092;28;20021;-78
2021/11/11 05:56:17;;;;;;;60.05;26.02;;;1.30;99.90;;;;;;5017495;28;20017;-78
2021/11/11 05:58:44;;;;;;;72.47;27.52;;;1.30;99.90;;;;;;5034886;28;20037;-78
2021/11/11 06:01:10;;;;;;;65.30;25.02;;;1.30;99.90;;;;;;5035056;28;20056;-78
2021/11/11 06:03:36;;;;;;;60.58;25.65;;;1.30;99.90;;;;;;5035182;28;20024;-78
2021/11/11 06:06:02;;;;;;;45.83;24.23;;;2.00;99.90;;;;;;5034745;28;20038;-78
2021/11/11 06:08:27;;;;;;;60.55;24.05;;;1.40;99.90;;;;;;5017812;28;20104;-77
2021/11/11 06:10:53;;;;;;;46.03;24.25;;;1.40;99.90;;;;;;5017123;28;20048;-78
2021/11/11 06:13:23;;;;;;;51.03;25.13;;;1.30;99.90;;;;;;5035080;28;20022;-79
2021/11/11 06:15:51;;;;;;;51.58;24.65;;;1.40;99.90;;;;;;5017361;28;20013;-78
2021/11/11 06:18:16;;;;;;;61.15;25.67;;;1.40;99.90;;;;;;5000935;28;20114;-78
2021/11/11 06:20:47;;;;;;;56.55;26.42;;;1.40;99.90;;;;;;5034797;28;20177;-78
2021/11/11 06:23:13;;;;;;;53.53;26.42;;;1.60;99.90;;;;;;5017667;28;20056;-79
2021/11/11 06:25:40;;;;;;;56.53;25.75;;;1.70;99.90;;;;;;5035703;28;20060;-78
2021/11/11 06:28:08;;;;;;;51.63;26.67;;;1.30;99.90;;;;;;5033111;28;20021;-77
2021/11/11 06:30:34;;;;;;;51.65;26.55;;;1.40;99.90;;;;;;5040420;28;20026;-80
2021/11/11 06:33:02;;;;;;;51.20;27.58;;;1.50;99.90;;;;;;5039558;28;20076;-81
2021/11/11 06:35:30;;;;;;;56.47;29.63;;;1.40;99.90;;;;;;5023845;28;20064;-80
2021/11/11 06:37:57;;;;;;;47.75;25.30;;;1.30;99.90;;;;;;5024154;28;20044;-79
2021/11/11 06:40:23;;;;;;;49.85;27.08;;;2.10;99.90;;;;;;5003671;28;20037;-80
2021/11/11 06:42:49;;;;;;;68.05;29.02;;;1.40;99.90;;;;;;5037610;28;20021;-81
2021/11/11 06:45:15;;;;;;;74.55;30.15;;;1.50;99.90;;;;;;5003235;28;20040;-82
2021/11/11 06:47:41;;;;;;;55.55;26.40;;;1.50;99.90;;;;;;5010773;28;20033;-82
2021/11/11 06:50:08;;;;;;;48.72;26.48;;;2.50;99.90;;;;;;5031557;28;20052;-82
2021/11/11 06:52:34;;;;;;;80.53;30.63;;;1.40;99.90;;;;;;5030604;28;20029;-82
2021/11/11 06:55:00;;;;;;;53.15;27.67;;;2.30;99.90;;;;;;5038007;28;20099;-82
2021/11/11 06:57:26;;;;;;;77.45;29.50;;;1.10;99.90;;;;;;5001847;28;20032;-81
2021/11/11 06:59:52;;;;;;;57.55;27.35;;;1.50;99.90;;;;;;4993157;28;20044;-81
2021/11/11 07:02:17;;;;;;;80.13;29.92;;;3.60;99.90;;;;;;5018356;28;20059;-80
2021/11/11 07:04:43;;;;;;;55.63;29.67;;;1.60;99.90;;;;;;4999041;28;20031;-79
2021/11/11 07:07:09;;;;;;;57.15;28.60;;;1.60;99.90;;;;;;5000329;28;20084;-81
2021/11/11 07:09:35;;;;;;;64.80;29.25;;;1.70;99.90;;;;;;4985854;28;20040;-81
2021/11/11 07:12:00;;;;;;;56.88;30.23;;;1.80;99.90;;;;;;5015789;28;20030;-80
2021/11/11 07:14:26;;;;;;;78.25;29.58;;;1.80;99.90;;;;;;5014723;28;20108;-80
2021/11/11 07:16:52;;;;;;;76.05;31.52;;;1.80;99.90;;;;;;5012503;28;20075;-81
2021/11/11 07:19:18;;;;;;;80.00;30.80;;;1.80;99.90;;;;;;5013647;28;20064;-79
2021/11/11 07:21:43;;;;;;;123.53;34.47;;;1.80;99.90;;;;;;4978315;28;20030;-78
2021/11/11 07:24:09;;;;;;;139.25;31.40;;;1.90;99.90;;;;;;5030346;28;20025;-80
2021/11/11 07:26:35;;;;;;;89.03;29.13;;;2.10;99.90;;;;;;5014637;28;20510;-81
2021/11/11 07:29:01;;;;;;;62.72;29.27;;;1.70;99.90;;;;;;5030898;28;20029;-78
2021/11/11 07:31:26;;;;;;;60.58;31.45;;;1.80;99.90;;;;;;5014250;28;20040;-79
2021/11/11 07:33:55;;;;;;;77.38;30.90;;;1.80;99.90;;;;;;5033781;28;20030;-78
2021/11/11 07:36:21;;;;;;;60.40;29.70;;;1.90;99.90;;;;;;5014420;28;20743;-78
2021/11/11 07:38:46;;;;;;;58.15;26.75;;;2.60;99.90;;;;;;4998065;28;20169;-79
2021/11/11 07:41:12;;;;;;;44.00;24.63;;;2.10;99.90;;;;;;5033467;28;20029;-79
2021/11/11 07:43:37;;;;;;;53.55;24.20;;;3.40;99.90;;;;;;5000679;28;20041;-79
2021/11/11 07:46:05;;;;;;;63.92;25.10;;;2.10;99.90;;;;;;5002002;28;20087;-78
2021/11/11 07:48:32;;;;;;;50.00;25.73;;;3.70;99.90;;;;;;5019792;28;20060;-79
2021/11/11 07:50:59;;;;;;;61.70;26.98;;;2.20;99.90;;;;;;5017809;28;20156;-77
2021/11/11 07:53:29;;;;;;;122.15;28.55;;;2.20;99.90;;;;;;5012787;28;20339;-78
2021/11/11 07:55:54;;;;;;;76.35;27.25;;;2.20;99.90;;;;;;5019590;28;20041;-79
2021/11/11 07:58:21;;;;;;;59.63;27.48;;;2.10;99.90;;;;;;5037467;28;20030;-78
2021/11/11 08:00:47;;;;;;;97.07;30.13;;;2.20;99.90;;;;;;5039840;28;20033;-78
2021/11/11 08:03:12;;;;;;;78.57;27.45;;;2.20;99.90;;;;;;5022347;28;20494;-79
2021/11/11 08:05:40;;;;;;;73.13;24.27;;;2.50;99.90;;;;;;5040277;28;20029;-77
2021/11/11 08:08:06;;;;;;;74.30;23.88;;;2.30;99.90;;;;;;5024250;28;20029;-78
2021/11/11 08:10:33;;;;;;;52.58;22.88;;;2.20;99.90;;;;;;5022617;28;20041;-78
2021/11/11 08:12:59;;;;;;;43.47;24.58;;;2.30;99.90;;;;;;5047431;28;20112;-78
2021/11/11 08:15:25;;;;;;;100.38;27.45;;;2.40;99.90;;;;;;5045411;28;20025;-78
2021/11/11 08:17:51;;;;;;;50.72;22.83;;;3.10;99.90;;;;;;5026542;28;20030;-78
2021/11/11 08:20:17;;;;;;;84.40;24.25;;;2.40;99.90;;;;;;5006532;28;20039;-78
2021/11/11 08:22:45;;;;;;;38.80;23.15;;;2.10;99.90;;;;;;5022694;28;20029;-78
2021/11/11 08:25:12;;;;;;;76.88;27.48;;;2.20;99.90;;;;;;5023990;28;20052;-80
2021/11/11 08:27:38;;;;;;;54.70;24.67;;;3.10;99.90;;;;;;5025172;28;20060;-78
2021/11/11 08:30:07;;;;;;;52.70;26.48;;;2.20;99.90;;;;;;5021105;28;20029;-80
2021/11/11 08:32:34;;;;;;;54.90;25.25;;;2.30;99.90;;;;;;5011084;28;20064;-78
2021/11/11 08:35:00;;;;;;;40.97;24.13;;;2.40;99.90;;;;;;5044396;28;20033;-78
2021/11/11 08:37:26;;;;;;;47.83;25.45;;;2.10;99.90;;;;;;5031881;28;20044;-77
2021/11/11 08:39:52;;;;;;;81.57;25.52;;;2.30;99.90;;;;;;5030237;28;20044;-80
2021/11/11 08:42:18;;;;;;;64.10;25.50;;;3.20;99.90;;;;;;5021828;28;20030;-78
2021/11/11 08:44:46;;;;;;;45.10;25.33;;;3.40;99.90;;;;;;4999942;28;20084;-76
2021/11/11 08:47:14;;;;;;;43.83;25.92;;;2.70;99.90;;;;;;5014628;28;20057;-76
2021/11/11 08:49:41;;;;;;;43.33;25.30;;;2.60;99.90;;;;;;5032241;28;20025;-76
2021/11/11 08:52:08;;;;;;;52.38;26.55;;;2.70;99.90;;;;;;5014516;28;20022;-76
2021/11/11 08:54:33;;;;;;;44.80;26.33;;;2.80;99.90;;;;;;5031766;28;20032;-76
2021/11/11 08:57:00;;;;;;;59.80;25.42;;;2.90;99.90;;;;;;5015739;28;20045;-80
2021/11/11 08:59:25;;;;;;;47.53;26.42;;;2.80;99.90;;;;;;5026761;28;20025;-78
2021/11/11 09:01:53;;;;;;;50.75;25.58;;;3.10;99.90;;;;;;5009721;28;20038;-78
2021/11/11 09:04:20;;;;;;;45.85;25.05;;;3.30;99.90;;;;;;5026965;28;20740;-77
2021/11/11 09:06:46;;;;;;;40.47;24.10;;;3.40;99.90;;;;;;5027390;28;20171;-76
2021/11/11 09:09:13;;;;;;;49.17;25.90;;;3.30;99.90;;;;;;5028327;28;20049;-78
2021/11/11 09:11:39;;;;;;;44.55;24.55;;;3.50;99.90;;;;;;4997870;28;20030;-76
2021/11/11 09:14:06;;;;;;;42.67;22.98;;;3.50;99.90;;;;;;5033927;28;20508;-80
2021/11/11 09:16:32;;;;;;;44.95;24.90;;;5.20;99.90;;;;;;5014498;28;20056;-77
2021/11/11 09:18:57;;;;;;;42.13;24.73;;;4.90;99.90;;;;;;5014449;28;20029;-77
2021/11/11 09:21:24;;;;;;;49.97;24.88;;;4.30;99.90;;;;;;5033186;28;20026;-79
2021/11/11 09:23:50;;;;;;;46.65;25.00;;;4.90;99.90;;;;;;4994411;28;20124;-76
2021/11/11 09:26:17;;;;;;;41.80;24.35;;;3.90;99.90;;;;;;5011273;28;20022;-78
2021/11/11 09:28:43;;;;;;;41.58;23.08;;;3.70;99.90;;;;;;5017883;28;20030;-76
2021/11/11 09:31:12;;;;;;;56.92;24.63;;;3.70;99.90;;;;;;5032030;28;20033;-77
2021/11/11 09:33:41;;;;;;;53.42;26.45;;;3.60;99.90;;;;;;5031599;28;20029;-77
2021/11/11 09:36:08;;;;;;;61.42;26.73;;;3.60;99.90;;;;;;5013214;28;20072;-77
2021/11/11 09:38:34;;;;;;;57.83;26.27;;;4.00;99.90;;;;;;5031097;28;20025;-78
2021/11/11 09:41:00;;;;;;;58.85;26.20;;;4.50;99.90;;;;;;5030270;28;20037;-79
2021/11/11 09:43:26;;;;;;;65.30;26.13;;;3.70;99.90;;;;;;5011602;28;20104;-78
2021/11/11 09:45:52;;;;;;;66.88;26.77;;;3.80;99.90;;;;;;5013028;28;20430;-79
2021/11/11 09:48:19;;;;;;;64.68;28.20;;;3.60;99.90;;;;;;4999095;28;20026;-79
2021/11/11 09:50:45;;;;;;;58.88;27.83;;;3.80;99.90;;;;;;5031371;28;20022;-80
2021/11/11 09:53:20;;;;;;;65.88;26.73;;;5.10;99.90;;;;;;5017827;28;20014;-78
2021/11/11 09:58:43;;;;;;;67.25;28.45;;;4.40;99.90;;;;;;5015725;28;20045;-79
2021/11/11 10:01:12;;;;;;;64.68;29.20;;;3.70;99.90;;;;;;5024244;28;20022;-79
2021/11/11 10:03:43;;;;;;;75.60;30.20;;;3.70;99.90;;;;;;5019662;28;20544;-79
2021/11/11 10:06:15;;;;;;;65.50;31.00;;;3.80;99.90;;;;;;5039463;28;20030;-79
2021/11/11 10:08:43;;;;;;;;;;;3.90;99.90;;;;;;5021629;28;20100;-78
2021/11/11 10:11:26;;;;;;;64.53;28.45;;;3.90;99.90;;;;;;5019086;28;20396;-79
2021/11/11 10:13:58;;;;;;;68.40;28.25;;;3.90;99.90;;;;;;5036137;28;20164;-79
2021/11/11 10:16:24;;;;;;;61.75;28.92;;;4.60;99.90;;;;;;5034754;28;20081;-79
2021/11/11 10:18:57;;;;;;;66.35;32.20;;;3.70;99.90;;;;;;5034760;28;20091;-79
2021/11/11 10:21:32;;;;;;;67.30;31.73;;;3.90;99.90;;;;;;5017117;28;20581;-78
2021/11/11 10:24:20;;;;;;;63.30;30.50;;;4.10;99.90;;;;;;5035340;28;20035;-79
2021/11/11 10:27:01;;;;;;;71.13;34.45;;;4.10;99.90;;;;;;5017732;28;20367;-78
2021/11/11 10:29:30;;;;;;;72.05;33.35;;;4.30;99.90;;;;;;5053232;22;20045;-76
2021/11/11 10:32:04;;;;;;;70.93;32.65;;;5.50;99.90;;;;;;5053421;28;20028;-75
2021/11/11 10:34:30;;;;;;;62.08;31.65;;;4.30;99.90;;;;;;5052089;28;20033;-76
2021/11/11 10:36:56;;;;;;;70.38;32.58;;;4.30;99.90;;;;;;5053114;28;20017;-75
2021/11/11 10:39:26;;;;;;;66.10;33.58;;;4.30;99.90;;;;;;5026476;28;20717;-75
2021/11/11 10:41:55;;;;;;;82.43;37.10;;;4.40;99.90;;;;;;5029888;28;20522;-76
2021/11/11 10:44:25;;;;;;;77.35;33.90;;;4.50;99.90;;;;;;5032969;28;20034;-77
2021/11/11 10:46:58;;;;;;;76.55;35.70;;;4.90;99.90;;;;;;5033469;28;20083;-76
2021/11/11 10:49:29;;;;;;;64.03;32.60;;;4.80;99.90;;;;;;5033594;28;20025;-76
2021/11/11 10:51:56;;;;;;;61.95;31.13;;;4.80;99.90;;;;;;5027918;28;20026;-76
2021/11/11 10:54:22;;;;;;;57.83;31.40;;;4.90;99.90;;;;;;5031952;28;20026;-76
2021/11/11 10:56:49;;;;;;;61.60;31.25;;;4.70;99.90;;;;;;5033369;28;20033;-76
2021/11/11 10:59:17;;;;;;;61.80;31.23;;;4.80;99.90;;;;;;5029494;28;20470;-76
2021/11/11 11:01:45;;;;;;;63.08;32.90;;;4.80;99.90;;;;;;4996667;28;20079;-76
2021/11/11 11:04:25;;;;;;;68.68;33.17;;;4.80;99.90;;;;;;5032794;28;20083;-76
2021/11/11 11:06:51;;;;;;;73.25;33.15;;;4.80;99.90;;;;;;5024795;28;20040;-76
2021/11/11 11:09:18;;;;;;;70.10;34.40;;;4.80;99.90;;;;;;5022460;28;20420;-76
2021/11/11 11:11:44;;;;;;;67.65;33.33;;;5.20;99.90;;;;;;5033258;28;20056;-76
2021/11/11 11:14:20;;;;;;;76.72;33.70;;;5.60;99.90;;;;;;5015104;28;20489;-76
2021/11/11 11:16:46;;;;;;;67.57;33.67;;;4.70;99.90;;;;;;5032622;28;20029;-76
2021/11/11 11:19:15;;;;;;;72.13;34.58;;;5.00;99.90;;;;;;5033007;28;20026;-76
2021/11/11 11:21:45;;;;;;;70.25;35.22;;;5.30;99.90;;;;;;5033116;28;20549;-76
2021/11/11 11:24:17;;;;;;;65.03;33.72;;;5.30;99.90;;;;;;5033461;28;20101;-76
2021/11/11 11:26:49;;;;;;;69.65;35.10;;;4.80;99.90;;;;;;5032848;28;20379;-76
2021/11/11 11:32:22;;;;;;;74.57;37.22;;;4.80;99.90;;;;;;5015206;28;20532;-76
2021/11/11 11:34:50;;;;;;;67.43;35.10;;;4.70;99.90;;;;;;5017547;28;20588;-75
2021/11/11 11:37:22;;;;;;;61.67;34.47;;;4.60;99.90;;;;;;5032720;28;20017;-77
2021/11/11 11:39:53;;;;;;;72.80;35.00;;;4.60;99.90;;;;;;5032886;28;20032;-76
2021/11/11 11:42:25;;;;;;;63.97;36.00;;;4.70;99.90;;;;;;5019700;28;20123;-77
2021/11/11 11:44:59;;;;;;;69.70;36.08;;;4.60;99.90;;;;;;5014837;28;20416;-76
2021/11/11 11:50:20;;;;;;;65.38;35.70;;;4.90;99.90;;;;;;5016251;28;20037;-76
2021/11/11 11:52:55;;;;;;;68.18;33.90;;;4.80;99.90;;;;;;5025138;28;20025;-77
2021/11/11 11:55:26;;;;;;;65.78;33.90;;;4.90;99.90;;;;;;5031548;28;20026;-76
2021/11/11 12:03:35;;;;;;;75.53;37.83;;;4.90;99.90;;;;;;5026697;28;20034;-76
2021/11/11 12:06:27;;;;;;;64.50;34.00;;;5.90;99.90;;;;;;5022537;28;20083;-75
2021/11/11 12:17:55;;;;;;;71.93;34.45;;;5.10;99.90;;;;;;4970264;28;20411;-76
2021/11/11 12:38:31;;;;;;;60.88;30.77;;;5.10;99.90;;;;;;5030753;28;20032;-77
2021/11/11 12:40:05;;;;;;;58.00;31.00;;;5.30;99.90;;;;;;5031024;28;20083;-77
2021/11/11 12:42:49;;;;;;;60.20;33.30;;;6.20;99.90;;;;;;5031659;28;20543;-77
2021/11/11 12:45:41;;;;;;;56.50;31.98;;;5.10;99.90;;;;;;5031104;28;20616;-77
2021/11/11 12:48:10;;;;;;;63.20;33.35;;;5.40;99.90;;;;;;5028936;28;20149;-77
2021/11/11 12:50:46;;;;;;;56.45;30.77;;;5.50;99.90;;;;;;5031268;28;20577;-77
2021/11/11 12:53:22;;;;;;;65.15;34.70;;;5.40;99.90;;;;;;5024639;28;20064;-77
2021/11/11 12:55:59;;;;;;;61.83;34.13;;;5.50;99.90;;;;;;5031007;28;20492;-77
2021/11/11 12:58:38;;;;;;;60.85;33.35;;;5.40;99.90;;;;;;5031213;28;20047;-77
2021/11/11 13:01:15;;;;;;;71.30;34.10;;;5.40;99.90;;;;;;5030732;28;20034;-77
2021/11/11 13:03:55;;;;;;;67.45;34.15;;;5.20;99.90;;;;;;5032735;28;20026;-78
2021/11/11 13:06:39;;;;;;;62.38;33.35;;;5.10;99.90;;;;;;5013433;28;20021;-76
2021/11/11 13:09:11;;;;;;;68.57;34.20;;;5.30;99.90;;;;;;5030350;28;20025;-76
2021/11/11 13:11:41;;;;;;;67.53;34.75;;;5.20;99.90;;;;;;5033474;28;20116;-78
2021/11/11 13:14:16;;;;;;;65.47;34.08;;;5.10;99.90;;;;;;5032250;28;20040;-78
2021/11/11 13:17:09;;;;;;;67.13;35.75;;;5.00;99.90;;;;;;5031705;28;20386;-76
2021/11/11 13:20:00;;;;;;;67.43;35.33;;;6.10;99.90;;;;;;5027290;28;20554;-77
2021/11/11 13:23:07;;;;;;;66.07;35.28;;;6.60;99.90;;;;;;5031290;28;20025;-77
2021/11/11 13:25:48;;;;;;;69.05;34.63;;;5.30;99.90;;;;;;5029922;28;20029;-78
2021/11/11 15:16:47;;;;;;;82.30;36.90;;;4.50;99.90;;;;;;5029380;28;20116;-78
2021/11/11 16:19:38;;;;;;;88.47;41.03;;;4.60;99.90;;;;;;5031430;28;20534;-78
2021/11/11 16:20:50;;;;;;;97.00;40.15;;;4.30;99.90;;;;;;5015446;28;20051;-78
2021/11/11 16:23:07;;;;;;;92.22;40.03;;;4.10;99.90;;;;;;5027510;28;20037;-78
2021/11/11 16:28:17;;;;;;;93.60;41.65;;;5.60;99.90;;;;;;5030911;28;20040;-78
2021/11/11 16:30:43;;;;;;;104.55;42.80;;;4.30;99.90;;;;;;5029708;28;20512;-78
2021/11/11 16:33:09;;;;;;;90.75;40.08;;;4.30;99.90;;;;;;5029761;28;20041;-82